sensor_id;sensor_type;location;lat;lon;timestamp;pressure;altitude;pressure_sealevel;temperature;humidity
71559;BME280;59382;43.852;25.952;2022-12-31T00:01:34;102268.84;;;9.10;60.89
71559;BME280;59382;43.852;25.952;2022-12-31T00:04:01;102270.00;;;9.08;61.02
71559;BME280;59382;43.852;25.952;2022-12-31T00:06:33;102272.03;;;9.06;61.04
71559;BME280;59382;43.852;25.952;2022-12-31T00:09:00;102269.50;;;9.04;60.95
71559;BME280;59382;43.852;25.952;2022-12-31T00:11:27;102252.28;;;8.97;61.17
71559;BME280;59382;43.852;25.952;2022-12-31T00:13:54;102279.63;;;9.10;60.92
71559;BME280;59382;43.852;25.952;2022-12-31T00:16:22;102284.34;;;9.16;60.97
71559;BME280;59382;43.852;25.952;2022-12-31T00:18:51;102277.91;;;9.09;60.82
71559;BME280;59382;43.852;25.952;2022-12-31T00:21:17;102262.06;;;9.06;60.77
71559;BME280;59382;43.852;25.952;2022-12-31T00:23:44;102278.59;;;9.11;60.79
71559;BME280;59382;43.852;25.952;2022-12-31T00:26:13;102293.41;;;9.15;60.85
71559;BME280;59382;43.852;25.952;2022-12-31T00:28:40;102296.78;;;9.17;60.84
71559;BME280;59382;43.852;25.952;2022-12-31T00:31:15;102295.13;;;9.16;60.64
71559;BME280;59382;43.852;25.952;2022-12-31T00:33:41;102286.66;;;9.11;60.96
71559;BME280;59382;43.852;25.952;2022-12-31T00:36:12;102276.56;;;9.05;60.80
71559;BME280;59382;43.852;25.952;2022-12-31T00:38:40;102283.63;;;9.06;60.84
71559;BME280;59382;43.852;25.952;2022-12-31T00:41:06;102282.31;;;9.10;60.66
71559;BME280;59382;43.852;25.952;2022-12-31T00:43:32;102278.88;;;9.00;60.64
71559;BME280;59382;43.852;25.952;2022-12-31T00:45:58;102299.44;;;9.09;60.99
71559;BME280;59382;43.852;25.952;2022-12-31T00:48:24;102295.94;;;9.09;60.81
71559;BME280;59382;43.852;25.952;2022-12-31T00:50:50;102289.31;;;9.03;60.71
71559;BME280;59382;43.852;25.952;2022-12-31T00:53:16;102314.63;;;9.10;60.55
71559;BME280;59382;43.852;25.952;2022-12-31T00:55:41;102311.19;;;9.00;60.74
71559;BME280;59382;43.852;25.952;2022-12-31T00:58:07;102317.97;;;9.04;60.71
71559;BME280;59382;43.852;25.952;2022-12-31T01:00:32;102311.84;;;8.94;60.89
71559;BME280;59382;43.852;25.952;2022-12-31T01:02:58;102308.50;;;8.92;60.85
71559;BME280;59382;43.852;25.952;2022-12-31T01:05:23;102302.41;;;8.90;60.72
71559;BME280;59382;43.852;25.952;2022-12-31T01:07:49;102318.25;;;8.93;60.95
71559;BME280;59382;43.852;25.952;2022-12-31T01:10:14;102311.34;;;8.91;60.76
71559;BME280;59382;43.852;25.952;2022-12-31T01:13:03;102310.81;;;8.87;60.54
71559;BME280;59382;43.852;25.952;2022-12-31T01:15:33;102308.75;;;8.81;60.50
71559;BME280;59382;43.852;25.952;2022-12-31T01:17:59;102325.78;;;8.90;60.76
71559;BME280;59382;43.852;25.952;2022-12-31T01:20:25;102330.69;;;8.94;60.61
71559;BME280;59382;43.852;25.952;2022-12-31T01:22:51;102323.25;;;8.88;60.56
71559;BME280;59382;43.852;25.952;2022-12-31T01:25:16;102326.97;;;8.87;60.42
71559;BME280;59382;43.852;25.952;2022-12-31T01:27:42;102332.34;;;8.87;60.75
71559;BME280;59382;43.852;25.952;2022-12-31T01:30:07;102314.47;;;8.78;60.67
71559;BME280;59382;43.852;25.952;2022-12-31T01:32:33;102320.88;;;8.77;60.88
71559;BME280;59382;43.852;25.952;2022-12-31T01:34:59;102310.75;;;8.71;61.41
71559;BME280;59382;43.852;25.952;2022-12-31T01:37:24;102322.91;;;8.83;60.93
71559;BME280;59382;43.852;25.952;2022-12-31T01:39:50;102315.47;;;8.77;60.93
71559;BME280;59382;43.852;25.952;2022-12-31T01:42:15;102327.28;;;8.84;61.03
71559;BME280;59382;43.852;25.952;2022-12-31T01:47:13;102320.88;;;8.77;60.93
71559;BME280;59382;43.852;25.952;2022-12-31T01:52:18;102341.06;;;8.81;60.74
71559;BME280;59382;43.852;25.952;2022-12-31T01:57:41;102314.34;;;8.54;60.92
71559;BME280;59382;43.852;25.952;2022-12-31T02:00:09;102333.22;;;8.62;61.18
71559;BME280;59382;43.852;25.952;2022-12-31T02:02:34;102312.28;;;8.48;61.22
71559;BME280;59382;43.852;25.952;2022-12-31T02:05:02;102328.47;;;8.56;61.10
71559;BME280;59382;43.852;25.952;2022-12-31T02:07:29;102332.69;;;8.59;61.14
71559;BME280;59382;43.852;25.952;2022-12-31T02:09:55;102325.09;;;8.54;61.04
71559;BME280;59382;43.852;25.952;2022-12-31T02:12:21;102326.66;;;8.57;61.21
71559;BME280;59382;43.852;25.952;2022-12-31T02:14:50;102326.50;;;8.58;61.22
71559;BME280;59382;43.852;25.952;2022-12-31T02:30:52;102332.84;;;8.57;61.06
71559;BME280;59382;43.852;25.952;2022-12-31T02:33:35;102302.13;;;8.34;61.11
71559;BME280;59382;43.852;25.952;2022-12-31T02:36:09;102294.84;;;8.27;61.31
71559;BME280;59382;43.852;25.952;2022-12-31T02:38:41;102309.88;;;8.37;61.25
71559;BME280;59382;43.852;25.952;2022-12-31T02:41:12;102311.56;;;8.38;61.04
71559;BME280;59382;43.852;25.952;2022-12-31T02:43:57;102326.06;;;8.45;60.86
71559;BME280;59382;43.852;25.952;2022-12-31T02:46:33;102308.53;;;8.33;61.01
71559;BME280;59382;43.852;25.952;2022-12-31T02:49:07;102338.28;;;8.40;61.03
71559;BME280;59382;43.852;25.952;2022-12-31T02:52:53;102343.31;;;8.35;60.85
71559;BME280;59382;43.852;25.952;2022-12-31T02:54:52;102351.16;;;8.28;61.25
71559;BME280;59382;43.852;25.952;2022-12-31T02:57:27;102354.47;;;8.22;61.65
71559;BME280;59382;43.852;25.952;2022-12-31T03:00:04;102346.78;;;8.09;61.06
71559;BME280;59382;43.852;25.952;2022-12-31T03:02:49;102352.88;;;7.94;61.43
71559;BME280;59382;43.852;25.952;2022-12-31T03:05:18;102331.53;;;7.75;61.79
71559;BME280;59382;43.852;25.952;2022-12-31T03:07:45;102313.56;;;7.58;62.02
71559;BME280;59382;43.852;25.952;2022-12-31T03:10:11;102347.06;;;7.81;61.71
71559;BME280;59382;43.852;25.952;2022-12-31T03:12:38;102356.88;;;7.90;61.86
71559;BME280;59382;43.852;25.952;2022-12-31T03:15:35;102360.63;;;7.97;61.75
71559;BME280;59382;43.852;25.952;2022-12-31T03:18:13;102355.94;;;7.99;61.50
71559;BME280;59382;43.852;25.952;2022-12-31T03:20:42;102364.06;;;8.07;61.39
71559;BME280;59382;43.852;25.952;2022-12-31T03:23:37;102339.78;;;7.99;61.34
71559;BME280;59382;43.852;25.952;2022-12-31T03:26:04;102346.25;;;8.06;61.27
71559;BME280;59382;43.852;25.952;2022-12-31T03:28:38;102333.34;;;7.92;61.42
71559;BME280;59382;43.852;25.952;2022-12-31T03:31:05;102329.00;;;7.91;61.42
71559;BME280;59382;43.852;25.952;2022-12-31T03:33:32;102347.31;;;8.13;61.29
71559;BME280;59382;43.852;25.952;2022-12-31T03:35:58;102346.25;;;8.06;61.10
71559;BME280;59382;43.852;25.952;2022-12-31T03:38:26;102347.31;;;8.13;61.43
71559;BME280;59382;43.852;25.952;2022-12-31T03:40:52;102332.66;;;8.07;61.11
71559;BME280;59382;43.852;25.952;2022-12-31T03:43:18;102350.72;;;8.15;60.89
71559;BME280;59382;43.852;25.952;2022-12-31T03:45:54;102353.41;;;8.15;61.16
71559;BME280;59382;43.852;25.952;2022-12-31T03:48:21;102349.69;;;8.16;61.21
71559;BME280;59382;43.852;25.952;2022-12-31T03:50:47;102355.19;;;8.24;61.18
71559;BME280;59382;43.852;25.952;2022-12-31T03:53:13;102359.72;;;8.24;60.88
71559;BME280;59382;43.852;25.952;2022-12-31T03:55:39;102361.06;;;8.28;61.08
71559;BME280;59382;43.852;25.952;2022-12-31T03:58:07;102319.16;;;7.99;60.81
71559;BME280;59382;43.852;25.952;2022-12-31T04:00:33;102354.31;;;8.24;60.93
71559;BME280;59382;43.852;25.952;2022-12-31T04:02:58;102357.91;;;8.32;60.89
71559;BME280;59382;43.852;25.952;2022-12-31T04:05:24;102350.09;;;8.21;60.97
71559;BME280;59382;43.852;25.952;2022-12-31T04:07:49;102362.25;;;8.25;61.08
71559;BME280;59382;43.852;25.952;2022-12-31T04:10:18;102357.88;;;8.24;60.90
71559;BME280;59382;43.852;25.952;2022-12-31T04:12:44;102365.31;;;8.30;60.91
71559;BME280;59382;43.852;25.952;2022-12-31T04:15:15;102331.50;;;8.10;61.01
71559;BME280;59382;43.852;25.952;2022-12-31T04:17:41;102342.94;;;8.30;60.99
71559;BME280;59382;43.852;25.952;2022-12-31T04:20:07;102357.59;;;8.35;60.71
71559;BME280;59382;43.852;25.952;2022-12-31T04:22:33;102354.56;;;8.30;61.16
71559;BME280;59382;43.852;25.952;2022-12-31T04:24:58;102345.00;;;8.18;60.64
71559;BME280;59382;43.852;25.952;2022-12-31T04:27:24;102367.22;;;8.38;60.79
71559;BME280;59382;43.852;25.952;2022-12-31T04:29:49;102375.81;;;8.41;60.74
71559;BME280;59382;43.852;25.952;2022-12-31T04:32:18;102385.53;;;8.42;60.87
71559;BME280;59382;43.852;25.952;2022-12-31T04:34:43;102369.75;;;8.39;60.72
71559;BME280;59382;43.852;25.952;2022-12-31T04:37:09;102355.91;;;8.34;60.41
71559;BME280;59382;43.852;25.952;2022-12-31T04:39:36;102381.56;;;8.46;60.59
71559;BME280;59382;43.852;25.952;2022-12-31T04:42:02;102384.41;;;8.45;60.51
71559;BME280;59382;43.852;25.952;2022-12-31T04:44:28;102383.56;;;8.44;60.70
71559;BME280;59382;43.852;25.952;2022-12-31T04:46:53;102368.66;;;8.32;60.61
71559;BME280;59382;43.852;25.952;2022-12-31T04:49:20;102353.16;;;8.26;60.61
71559;BME280;59382;43.852;25.952;2022-12-31T04:51:45;102369.06;;;8.37;60.55
71559;BME280;59382;43.852;25.952;2022-12-31T04:54:11;102381.03;;;8.43;60.42
71559;BME280;59382;43.852;25.952;2022-12-31T04:56:36;102362.31;;;8.33;60.44
71559;BME280;59382;43.852;25.952;2022-12-31T04:59:03;102389.25;;;8.41;60.45
71559;BME280;59382;43.852;25.952;2022-12-31T05:01:29;102367.31;;;8.28;60.60
71559;BME280;59382;43.852;25.952;2022-12-31T05:03:55;102377.44;;;8.34;60.46
71559;BME280;59382;43.852;25.952;2022-12-31T05:06:22;102391.63;;;8.44;60.46
71559;BME280;59382;43.852;25.952;2022-12-31T05:09:19;102399.38;;;8.47;60.43
71559;BME280;59382;43.852;25.952;2022-12-31T05:12:14;102392.47;;;8.45;60.26
71559;BME280;59382;43.852;25.952;2022-12-31T05:15:01;102385.13;;;8.29;60.31
71559;BME280;59382;43.852;25.952;2022-12-31T05:24:11;102413.03;;;8.28;60.42
71559;BME280;59382;43.852;25.952;2022-12-31T05:26:37;102426.47;;;8.28;60.41
71559;BME280;59382;43.852;25.952;2022-12-31T05:29:05;102412.25;;;8.18;60.52
71559;BME280;59382;43.852;25.952;2022-12-31T05:31:51;102428.88;;;8.22;60.38
71559;BME280;59382;43.852;25.952;2022-12-31T05:34:17;102424.28;;;8.14;60.60
71559;BME280;59382;43.852;25.952;2022-12-31T05:36:43;102429.81;;;8.13;60.33
71559;BME280;59382;43.852;25.952;2022-12-31T05:39:08;102428.28;;;8.10;60.39
71559;BME280;59382;43.852;25.952;2022-12-31T05:41:34;102438.75;;;8.13;60.40
71559;BME280;59382;43.852;25.952;2022-12-31T05:43:59;102440.25;;;8.16;60.38
71559;BME280;59382;43.852;25.952;2022-12-31T05:46:25;102439.03;;;8.10;60.63
71559;BME280;59382;43.852;25.952;2022-12-31T05:48:50;102430.88;;;8.02;60.39
71559;BME280;59382;43.852;25.952;2022-12-31T05:51:16;102444.41;;;8.10;60.55
71559;BME280;59382;43.852;25.952;2022-12-31T05:53:41;102449.78;;;8.10;60.64
71559;BME280;59382;43.852;25.952;2022-12-31T05:56:07;102436.25;;;8.02;60.55
71559;BME280;59382;43.852;25.952;2022-12-31T05:58:32;102459.38;;;8.13;60.62
71559;BME280;59382;43.852;25.952;2022-12-31T06:00:58;102456.78;;;8.03;60.47
71559;BME280;59382;43.852;25.952;2022-12-31T06:03:23;102456.69;;;7.95;60.83
71559;BME280;59382;43.852;25.952;2022-12-31T06:05:49;102464.63;;;7.96;60.72
71559;BME280;59382;43.852;25.952;2022-12-31T06:08:14;102452.22;;;7.86;60.79
71559;BME280;59382;43.852;25.952;2022-12-31T06:10:40;102490.03;;;8.02;60.76
71559;BME280;59382;43.852;25.952;2022-12-31T06:13:06;102496.41;;;8.01;60.55
71559;BME280;59382;43.852;25.952;2022-12-31T06:15:32;102480.75;;;7.96;60.75
71559;BME280;59382;43.852;25.952;2022-12-31T06:17:57;102475.75;;;7.84;61.03
71559;BME280;59382;43.852;25.952;2022-12-31T06:20:23;102465.59;;;7.78;60.81
71559;BME280;59382;43.852;25.952;2022-12-31T06:22:48;102496.00;;;7.96;60.99
71559;BME280;59382;43.852;25.952;2022-12-31T06:25:14;102471.75;;;7.88;61.02
71559;BME280;59382;43.852;25.952;2022-12-31T06:27:39;102497.28;;;8.01;60.75
71559;BME280;59382;43.852;25.952;2022-12-31T06:30:05;102500.78;;;8.02;60.49
71559;BME280;59382;43.852;25.952;2022-12-31T06:32:31;102498.09;;;8.02;60.54
71559;BME280;59382;43.852;25.952;2022-12-31T06:34:57;102489.25;;;7.92;60.38
71559;BME280;59382;43.852;25.952;2022-12-31T06:37:22;102509.00;;;8.00;60.39
71559;BME280;59382;43.852;25.952;2022-12-31T06:39:48;102522.66;;;7.89;60.79
71559;BME280;59382;43.852;25.952;2022-12-31T06:42:14;102512.25;;;7.77;60.54
71559;BME280;59382;43.852;25.952;2022-12-31T06:44:40;102528.34;;;7.86;60.87
71559;BME280;59382;43.852;25.952;2022-12-31T06:47:05;102527.50;;;7.86;60.95
71559;BME280;59382;43.852;25.952;2022-12-31T06:49:31;102504.66;;;7.72;60.65
71559;BME280;59382;43.852;25.952;2022-12-31T06:51:56;102511.75;;;7.73;61.04
71559;BME280;59382;43.852;25.952;2022-12-31T06:54:22;102537.16;;;7.79;60.88
71559;BME280;59382;43.852;25.952;2022-12-31T06:56:47;102511.81;;;7.54;60.56
71559;BME280;59382;43.852;25.952;2022-12-31T06:59:25;102538.47;;;7.75;61.12
71559;BME280;59382;43.852;25.952;2022-12-31T07:11:06;102564.63;;;8.00;60.74
71559;BME280;59382;43.852;25.952;2022-12-31T07:22:15;102575.41;;;8.62;59.60
71559;BME280;59382;43.852;25.952;2022-12-31T07:24:42;102575.78;;;8.85;59.42
71559;BME280;59382;43.852;25.952;2022-12-31T07:27:25;102574.66;;;9.13;58.90
71559;BME280;59382;43.852;25.952;2022-12-31T07:32:41;102577.53;;;9.62;58.34
71559;BME280;59382;43.852;25.952;2022-12-31T07:37:50;102580.03;;;9.97;57.46
71559;BME280;59382;43.852;25.952;2022-12-31T07:40:50;102590.25;;;10.12;57.09
71559;BME280;59382;43.852;25.952;2022-12-31T07:43:33;102583.19;;;10.19;56.80
71559;BME280;59382;43.852;25.952;2022-12-31T07:48:41;102579.66;;;10.18;57.08
71559;BME280;59382;43.852;25.952;2022-12-31T07:51:08;102592.31;;;10.26;56.82
71559;BME280;59382;43.852;25.952;2022-12-31T07:53:35;102587.25;;;10.23;57.26
71559;BME280;59382;43.852;25.952;2022-12-31T07:56:03;102594.03;;;10.27;56.94
71559;BME280;59382;43.852;25.952;2022-12-31T08:00:56;102583.88;;;10.21;56.91
71559;BME280;59382;43.852;25.952;2022-12-31T08:12:00;102590.75;;;10.15;56.65
71559;BME280;59382;43.852;25.952;2022-12-31T08:14:27;102601.06;;;10.12;56.67
71559;BME280;59382;43.852;25.952;2022-12-31T08:16:54;102598.28;;;10.03;56.92
71559;BME280;59382;43.852;25.952;2022-12-31T08:24:27;102608.13;;;9.87;57.12
71559;BME280;59382;43.852;25.952;2022-12-31T08:32:22;102605.44;;;9.79;56.86
71559;BME280;59382;43.852;25.952;2022-12-31T08:38:08;102592.91;;;9.44;57.71
71559;BME280;59382;43.852;25.952;2022-12-31T08:49:25;102609.59;;;9.73;57.79
71559;BME280;59382;43.852;25.952;2022-12-31T08:51:52;102588.00;;;9.65;57.86
71559;BME280;59382;43.852;25.952;2022-12-31T08:54:17;102597.13;;;9.72;57.70
71559;BME280;59382;43.852;25.952;2022-12-31T09:05:36;102560.78;;;9.84;57.70
71559;BME280;59382;43.852;25.952;2022-12-31T09:08:31;102584.63;;;10.05;57.48
71559;BME280;59382;43.852;25.952;2022-12-31T09:17:16;102572.78;;;10.24;57.19
71559;BME280;59382;43.852;25.952;2022-12-31T09:19:50;102522.47;;;10.07;56.90
71559;BME280;59382;43.852;25.952;2022-12-31T09:22:16;102556.75;;;10.30;57.08
71559;BME280;59382;43.852;25.952;2022-12-31T09:24:42;102570.09;;;10.40;57.06
71559;BME280;59382;43.852;25.952;2022-12-31T09:27:33;102566.06;;;10.44;57.48
71559;BME280;59382;43.852;25.952;2022-12-31T09:30:10;102568.94;;;10.50;57.37
71559;BME280;59382;43.852;25.952;2022-12-31T09:33:03;102560.31;;;10.47;57.04
71559;BME280;59382;43.852;25.952;2022-12-31T09:35:51;102519.81;;;10.31;57.19
71559;BME280;59382;43.852;25.952;2022-12-31T09:38:24;102551.22;;;10.56;56.93
71559;BME280;59382;43.852;25.952;2022-12-31T09:41:11;102551.09;;;10.65;57.39
71559;BME280;59382;43.852;25.952;2022-12-31T09:44:18;102546.50;;;10.66;57.13
71559;BME280;59382;43.852;25.952;2022-12-31T10:00:55;102529.97;;;10.93;57.18
71559;BME280;59382;43.852;25.952;2022-12-31T10:06:31;102527.59;;;11.06;57.26
71559;BME280;59382;43.852;25.952;2022-12-31T10:09:29;102519.81;;;11.11;57.21
71559;BME280;59382;43.852;25.952;2022-12-31T10:12:21;102519.16;;;11.17;57.41
71559;BME280;59382;43.852;25.952;2022-12-31T10:18:36;102519.44;;;11.30;57.34
71559;BME280;59382;43.852;25.952;2022-12-31T10:26:56;102511.63;;;11.51;57.04
71559;BME280;59382;43.852;25.952;2022-12-31T10:35:41;102501.38;;;11.77;56.75
71559;BME280;59382;43.852;25.952;2022-12-31T10:53:44;102504.66;;;12.03;56.82
71559;BME280;59382;43.852;25.952;2022-12-31T11:08:04;102481.66;;;12.30;56.73
71559;BME280;59382;43.852;25.952;2022-12-31T11:24:13;102463.94;;;12.64;56.93
71559;BME280;59382;43.852;25.952;2022-12-31T11:30:22;102470.97;;;12.73;56.62
71559;BME280;59382;43.852;25.952;2022-12-31T11:33:06;102472.47;;;12.76;56.81
71559;BME280;59382;43.852;25.952;2022-12-31T11:38:47;102462.13;;;12.79;56.70
71559;BME280;59382;43.852;25.952;2022-12-31T11:41:24;102463.78;;;12.80;56.61
71559;BME280;59382;43.852;25.952;2022-12-31T11:44:09;102461.38;;;12.85;56.94
71559;BME280;59382;43.852;25.952;2022-12-31T11:46:50;102458.94;;;12.90;56.67
71559;BME280;59382;43.852;25.952;2022-12-31T11:57:33;102460.88;;;13.04;56.56
71559;BME280;59382;43.852;25.952;2022-12-31T12:00:15;102460.13;;;13.10;56.58
71559;BME280;59382;43.852;25.952;2022-12-31T12:02:46;102437.78;;;13.08;56.45
71559;BME280;59382;43.852;25.952;2022-12-31T12:05:16;102437.78;;;13.08;56.68
71559;BME280;59382;43.852;25.952;2022-12-31T12:07:43;102428.44;;;13.11;56.60
71559;BME280;59382;43.852;25.952;2022-12-31T12:10:31;102453.22;;;13.22;56.66
71559;BME280;59382;43.852;25.952;2022-12-31T12:13:27;102452.84;;;13.25;56.26
71559;BME280;59382;43.852;25.952;2022-12-31T12:15:56;102442.84;;;13.26;56.38
71559;BME280;59382;43.852;25.952;2022-12-31T12:18:50;102408.84;;;13.09;56.27
71559;BME280;59382;43.852;25.952;2022-12-31T12:21:20;102449.84;;;13.35;56.08
71559;BME280;59382;43.852;25.952;2022-12-31T12:23:58;102449.84;;;13.35;56.18
71559;BME280;59382;43.852;25.952;2022-12-31T12:26:33;102455.47;;;13.33;56.75
71559;BME280;59382;43.852;25.952;2022-12-31T12:29:08;102449.13;;;13.26;56.26
71559;BME280;59382;43.852;25.952;2022-12-31T12:31:34;102452.84;;;13.25;56.74
71559;BME280;59382;43.852;25.952;2022-12-31T12:34:00;102468.56;;;13.30;56.28
71559;BME280;59382;43.852;25.952;2022-12-31T12:36:25;102471.47;;;13.28;56.69
71559;BME280;59382;43.852;25.952;2022-12-31T12:39:03;102465.75;;;13.23;56.83
71559;BME280;59382;43.852;25.952;2022-12-31T12:41:29;102471.84;;;13.25;56.61
71559;BME280;59382;43.852;25.952;2022-12-31T12:44:07;102459.78;;;13.13;56.76
71559;BME280;59382;43.852;25.952;2022-12-31T12:46:49;102476.97;;;13.20;56.82
71559;BME280;59382;43.852;25.952;2022-12-31T12:49:28;102483.13;;;13.14;57.12
71559;BME280;59382;43.852;25.952;2022-12-31T12:55:15;102481.44;;;13.13;57.54
71559;BME280;59382;43.852;25.952;2022-12-31T13:01:06;102478.19;;;13.03;57.62
71559;BME280;59382;43.852;25.952;2022-12-31T13:03:55;102494.72;;;13.08;57.58
71559;BME280;59382;43.852;25.952;2022-12-31T13:11:55;102499.19;;;13.01;57.92
71559;BME280;59382;43.852;25.952;2022-12-31T13:14:32;102496.97;;;13.05;58.00
71559;BME280;59382;43.852;25.952;2022-12-31T13:20:02;102499.69;;;13.05;58.14
71559;BME280;59382;43.852;25.952;2022-12-31T13:22:47;102500.03;;;13.02;58.07
71559;BME280;59382;43.852;25.952;2022-12-31T13:27:45;102501.94;;;12.93;58.35
71559;BME280;59382;43.852;25.952;2022-12-31T13:30:22;102504.94;;;12.98;57.96
71559;BME280;59382;43.852;25.952;2022-12-31T13:32:50;102508.69;;;12.97;58.67
71559;BME280;59382;43.852;25.952;2022-12-31T13:37:48;102515.09;;;13.04;58.32
71559;BME280;59382;43.852;25.952;2022-12-31T13:40:30;102509.66;;;13.04;58.27
71559;BME280;59382;43.852;25.952;2022-12-31T13:43:05;102516.75;;;13.05;58.59
71559;BME280;59382;43.852;25.952;2022-12-31T13:45:37;102510.03;;;13.01;58.77
71559;BME280;59382;43.852;25.952;2022-12-31T13:48:07;102501.13;;;12.93;58.67
71559;BME280;59382;43.852;25.952;2022-12-31T13:50:41;102525.91;;;13.04;58.73
71559;BME280;59382;43.852;25.952;2022-12-31T13:53:21;102516.31;;;13.02;58.77
71559;BME280;59382;43.852;25.952;2022-12-31T13:56:06;102503.16;;;12.91;58.86
71559;BME280;59382;43.852;25.952;2022-12-31T13:58:48;102519.19;;;13.00;58.86
71559;BME280;59382;43.852;25.952;2022-12-31T14:01:17;102524.63;;;13.00;58.82
71559;BME280;59382;43.852;25.952;2022-12-31T14:09:21;102519.84;;;13.02;58.91
71559;BME280;59382;43.852;25.952;2022-12-31T14:20:47;102510.38;;;12.98;59.06
71559;BME280;59382;43.852;25.952;2022-12-31T14:26:15;102514.84;;;12.91;59.49
71559;BME280;59382;43.852;25.952;2022-12-31T14:34:47;102505.09;;;12.82;59.67
71559;BME280;59382;43.852;25.952;2022-12-31T14:40:21;102501.72;;;12.80;59.75
71559;BME280;59382;43.852;25.952;2022-12-31T14:51:15;102504.84;;;12.69;60.05
71559;BME280;59382;43.852;25.952;2022-12-31T14:53:51;102498.63;;;12.69;60.10
71559;BME280;59382;43.852;25.952;2022-12-31T14:56:29;102495.50;;;12.57;60.02
71559;BME280;59382;43.852;25.952;2022-12-31T14:58:58;102506.44;;;12.64;60.09
71559;BME280;59382;43.852;25.952;2022-12-31T15:01:25;102511.56;;;12.59;60.10
71559;BME280;59382;43.852;25.952;2022-12-31T15:03:53;102509.59;;;12.53;60.20
71559;BME280;59382;43.852;25.952;2022-12-31T15:24:29;102541.34;;;12.36;60.83
71559;BME280;59382;43.852;25.952;2022-12-31T15:26:55;102548.44;;;12.37;60.58
71559;BME280;59382;43.852;25.952;2022-12-31T15:29:33;102555.88;;;12.35;61.04
71559;BME280;59382;43.852;25.952;2022-12-31T15:32:02;102563.34;;;12.33;60.82
71559;BME280;59382;43.852;25.952;2022-12-31T15:37:00;102553.94;;;12.21;61.35
71559;BME280;59382;43.852;25.952;2022-12-31T15:39:46;102562.72;;;12.23;61.10
71559;BME280;59382;43.852;25.952;2022-12-31T15:42:28;102541.47;;;12.12;61.12
71559;BME280;59382;43.852;25.952;2022-12-31T15:45:01;102554.31;;;12.18;61.47
71559;BME280;59382;43.852;25.952;2022-12-31T15:47:31;102554.66;;;12.15;61.09
71559;BME280;59382;43.852;25.952;2022-12-31T15:50:04;102548.09;;;12.10;61.15
71559;BME280;59382;43.852;25.952;2022-12-31T15:52:54;102551.16;;;12.07;61.31
71559;BME280;59382;43.852;25.952;2022-12-31T15:58:32;102551.69;;;12.02;61.27
71559;BME280;59382;43.852;25.952;2022-12-31T16:04:20;102555.03;;;12.04;61.25
71559;BME280;59382;43.852;25.952;2022-12-31T16:06:51;102518.75;;;11.90;61.13
71559;BME280;59382;43.852;25.952;2022-12-31T16:09:32;102552.31;;;12.04;61.44
71559;BME280;59382;43.852;25.952;2022-12-31T16:12:36;102550.66;;;12.03;61.26
71559;BME280;59382;43.852;25.952;2022-12-31T16:15:03;102542.88;;;12.00;61.05
71559;BME280;59382;43.852;25.952;2022-12-31T16:17:34;102527.53;;;11.93;61.03
71559;BME280;59382;43.852;25.952;2022-12-31T16:20:18;102555.56;;;12.00;61.16
71559;BME280;59382;43.852;25.952;2022-12-31T16:22:50;102547.34;;;11.93;61.43
71559;BME280;59382;43.852;25.952;2022-12-31T16:25:18;102552.69;;;12.01;61.40
71559;BME280;59382;43.852;25.952;2022-12-31T16:27:44;102542.09;;;11.92;61.51
71559;BME280;59382;43.852;25.952;2022-12-31T16:30:39;102564.53;;;12.00;61.49
71559;BME280;59382;43.852;25.952;2022-12-31T16:33:09;102558.94;;;12.02;61.60
71559;BME280;59382;43.852;25.952;2022-12-31T16:35:37;102568.91;;;12.01;61.02
71559;BME280;59382;43.852;25.952;2022-12-31T16:38:16;102558.28;;;12.00;61.33
71559;BME280;59382;43.852;25.952;2022-12-31T16:43:28;102558.97;;;11.93;61.10
71559;BME280;59382;43.852;25.952;2022-12-31T16:46:27;102562.19;;;11.97;60.78
71559;BME280;59382;43.852;25.952;2022-12-31T16:48:57;102560.50;;;11.96;61.18
71559;BME280;59382;43.852;25.952;2022-12-31T16:51:28;102576.56;;;11.98;61.23
71559;BME280;59382;43.852;25.952;2022-12-31T16:53:55;102576.06;;;11.94;61.01
71559;BME280;59382;43.852;25.952;2022-12-31T16:56:32;102577.44;;;11.90;60.72
71559;BME280;59382;43.852;25.952;2022-12-31T16:59:12;102570.84;;;11.84;61.22
71559;BME280;59382;43.852;25.952;2022-12-31T17:01:40;102587.91;;;11.93;61.02
71559;BME280;59382;43.852;25.952;2022-12-31T17:04:12;102565.97;;;11.80;61.13
71559;BME280;59382;43.852;25.952;2022-12-31T17:06:41;102576.44;;;11.83;61.00
71559;BME280;59382;43.852;25.952;2022-12-31T17:09:29;102583.88;;;11.81;61.24
71559;BME280;59382;43.852;25.952;2022-12-31T17:11:57;102585.06;;;11.78;60.96
71559;BME280;59382;43.852;25.952;2022-12-31T17:14:46;102604.84;;;11.87;60.83
71559;BME280;59382;43.852;25.952;2022-12-31T17:17:19;102599.78;;;11.84;61.01
71559;BME280;59382;43.852;25.952;2022-12-31T17:19:49;102604.84;;;11.87;60.77
71559;BME280;59382;43.852;25.952;2022-12-31T17:22:28;102583.91;;;11.73;60.68
71559;BME280;59382;43.852;25.952;2022-12-31T17:27:32;102586.25;;;11.76;61.12
71559;BME280;59382;43.852;25.952;2022-12-31T17:33:00;102606.34;;;11.81;60.93
71559;BME280;59382;43.852;25.952;2022-12-31T17:35:29;102608.25;;;11.81;60.53
71559;BME280;59382;43.852;25.952;2022-12-31T17:40:51;102610.78;;;11.74;60.44
71559;BME280;59382;43.852;25.952;2022-12-31T17:43:19;102611.00;;;11.65;60.56
71559;BME280;59382;43.852;25.952;2022-12-31T17:45:46;102611.47;;;11.68;60.72
71559;BME280;59382;43.852;25.952;2022-12-31T17:48:14;102606.91;;;11.69;60.78
71559;BME280;59382;43.852;25.952;2022-12-31T17:50:48;102620.09;;;11.72;60.68
71559;BME280;59382;43.852;25.952;2022-12-31T17:53:14;102622.44;;;11.75;60.60